Daniela Morace — IJAJ2 — position and weather

sailwx.info

Track history (hours):
 
Tides and Currents Weather Stations Pressure Air Temp Water Temp Dewpoint Dewpoint Depression Visibility Wind Speed Wind Dir Waves Ship Positions

Daniela Morace

Last reported at 2015-Mar-28 18:33 UTC. Time now 2015-Mar-28 22:19 UTC.
Position N 38°01' E 012°31'.

Length 37 m; draft 1 m.

Type: Ship. MMSI: 247297500.

Date/timePositionNaut miles runAvg speedWind from/ knotsBaromVisibWave heightAir tempDewpointWater temp
2015-Mar-28 18:33N 38°01' E 012°31'3 3.4
2015-Mar-28 17:33N 37°59' E 012°27'1 1.4
2015-Mar-28 16:33N 37°60' E 012°29'8 7.9
2015-Mar-28 15:33N 37°56' E 012°20'8 8.2
2015-Mar-28 14:34N 37°60' E 012°29'2 2.0
2015-Mar-28 13:34N 37°59' E 012°26'4 3.9
2015-Mar-28 12:33N 38°01' E 012°31'0 0.0
2015-Mar-27 14:23N 38°01' E 012°31'2 2.6
2015-Mar-27 13:34N 37°60' E 012°29'8 7.9
2015-Mar-27 12:33N 37°56' E 012°19'5 5.3
2015-Mar-27 11:33N 37°58' E 012°26'5 5.3
2015-Mar-27 10:33N 37°56' E 012°20'10 9.8
2015-Mar-27 09:33N 38°01' E 012°30'5 5.2
2015-Mar-27 08:33N 37°58' E 012°25'1 1.1
2015-Mar-27 07:34N 37°58' E 012°24'6 5.7
2015-Mar-27 06:33N 38°01' E 012°30'0 0.4
2015-Mar-27 05:33N 38°01' E 012°31'1 0.1
2015-Mar-26 19:34N 38°00' E 012°30'2 2.0
2015-Mar-26 18:33N 38°00' E 012°27'2 2.1
2015-Mar-26 17:33N 38°00' E 012°30'3 2.7
2015-Mar-26 16:34N 37°59' E 012°27'7 6.5
2015-Mar-26 15:33N 37°56' E 012°20'1010.1
2015-Mar-26 14:33N 38°01' E 012°31'0 0.0
2015-Mar-26 13:33N 38°01' E 012°31'0 0.0
2015-Mar-26 12:33N 38°01' E 012°31'0 0.0
2015-Mar-26 11:32N 38°01' E 012°31'0 0.0
2015-Mar-26 10:33N 38°01' E 012°31'0 0.0
2015-Mar-26 09:33N 38°01' E 012°31'0 0.0
2015-Mar-26 08:33N 38°01' E 012°31'1 0.1
2015-Mar-25 19:34N 38°00' E 012°29'3 2.5
2015-Mar-25 18:33N 38°01' E 012°26'3 2.7
2015-Mar-25 17:33N 38°00' E 012°30'2 2.1
2015-Mar-25 16:34N 37°59' E 012°27'7 7.0
2015-Mar-25 15:33N 37°56' E 012°20'9 8.6
2015-Mar-25 14:33N 38°00' E 012°29'2 2.0
2015-Mar-25 13:33N 38°00' E 012°27'3 3.1
2015-Mar-25 12:33N 38°01' E 012°31'1 0.0
2015-Mar-24 19:34N 38°00' E 012°30'3 3.0
2015-Mar-24 18:34N 38°00' E 012°26'3 2.9
2015-Mar-24 17:34N 38°00' E 012°30'0 0.1
2015-Mar-24 16:33N 38°00' E 012°30'9 9.0
2015-Mar-24 15:33N 37°56' E 012°20'8 8.2
2015-Mar-24 14:33N 37°60' E 012°29'2 2.3
2015-Mar-24 13:34N 38°00' E 012°26'4 3.7
2015-Mar-24 12:33N 38°01' E 012°31'0 0.0
2015-Mar-24 11:33N 38°01' E 012°31'0 0.0
2015-Mar-24 10:33N 38°01' E 012°31'0 0.0
2015-Mar-23 18:33N 38°01' E 012°31'0 0.0
2015-Mar-23 17:33N 38°01' E 012°31'0 0.0
2015-Mar-23 14:33N 38°01' E 012°31'1010.0
2015-Mar-23 13:33N 37°56' E 012°20'1211.9
2015-Mar-23 12:33N 37°58' E 012°05'1413.6
2015-Mar-23 11:33N 37°59' E 012°22'4 3.6
2015-Mar-23 10:33N 37°56' E 012°20'9 9.5
2015-Mar-23 09:33N 38°00' E 012°30'4 4.1
2015-Mar-23 08:33N 37°58' E 012°26'2 2.2
2015-Mar-23 07:33N 38°00' E 012°24'5 5.3
2015-Mar-23 06:33N 38°01' E 012°31'1 0.1
2015-Mar-22 13:34N 38°00' E 012°30'9 9.0
2015-Mar-22 12:33N 37°56' E 012°20'4 3.9
2015-Mar-22 11:34N 37°59' E 012°22'4 3.9
2015-Mar-22 10:34N 37°56' E 012°20'9 9.5
2015-Mar-22 09:33N 38°01' E 012°30'5 4.7
2015-Mar-22 08:33N 37°58' E 012°25'2 2.3
2015-Mar-22 07:34N 38°00' E 012°26'3 3.1
2015-Mar-22 06:33N 38°01' E 012°30'1 0.1
2015-Mar-21 19:33N 38°00' E 012°30'2 2.2
2015-Mar-21 18:34N 38°00' E 012°27'3 2.5
2015-Mar-21 17:33N 38°00' E 012°30'3 2.7
2015-Mar-21 16:33N 37°59' E 012°27'3 3.4
2015-Mar-21 15:33N 38°01' E 012°31'0 0.0
2015-Mar-21 14:33N 38°01' E 012°31'0 0.0
2015-Mar-21 13:33N 38°01' E 012°31'0 0.0
2015-Mar-21 12:34N 38°01' E 012°31'0 0.0
2015-Mar-20 20:32N 38°01' E 012°31'0 0.0
2015-Mar-20 19:33N 38°01' E 012°31'0 0.0
2015-Mar-20 18:33N 38°01' E 012°31'0 0.0
2015-Mar-20 17:33N 38°01' E 012°31'0 0.0
2015-Mar-20 16:33N 38°01' E 012°31'0 0.0
2015-Mar-20 15:34N 38°01' E 012°31'1 1.1
2015-Mar-20 14:33N 38°00' E 012°30'2 2.1
2015-Mar-20 13:33N 38°00' E 012°27'3 3.0
2015-Mar-20 12:33N 38°01' E 012°31'0 0.0
2015-Mar-20 11:33N 38°01' E 012°31'10 9.9
2015-Mar-20 10:33N 37°56' E 012°20'1010.1
2015-Mar-20 09:33N 38°01' E 012°31'5 5.2
2015-Mar-20 08:33N 37°58' E 012°25'2 1.9
2015-Mar-20 07:34N 38°00' E 012°25'4 4.3
2015-Mar-20 06:33N 38°01' E 012°31'1 0.1
2015-Mar-19 19:33N 38°00' E 012°30'2 2.3
2015-Mar-19 18:33N 38°00' E 012°27'2 2.1
2015-Mar-19 17:34N 38°00' E 012°30'1 1.1
2015-Mar-19 16:34N 37°60' E 012°28'8 7.8
2015-Mar-19 15:33N 37°56' E 012°20'8 8.1
2015-Mar-19 14:33N 37°60' E 012°29'2 1.6
2015-Mar-19 13:33N 38°00' E 012°27'3 3.3
2015-Mar-19 12:33N 38°01' E 012°31'0 0.0
2015-Mar-19 11:33N 38°01' E 012°31'0 0.0
2015-Mar-19 10:33N 38°01' E 012°31'0 0.0
2015-Mar-19 09:33N 38°01' E 012°31'0 0.0
2015-Mar-19 08:33N 38°01' E 012°31'0 0.0
2015-Mar-19 07:33N 38°01' E 012°31'  
Track history (hours):
 
Tides and Currents Weather Stations Pressure Air Temp Water Temp Dewpoint Dewpoint Depression Visibility Wind Speed Wind Dir Waves Ship Positions

Daniela Morace

Last reported at 2015-Mar-28 18:33 UTC. Time now 2015-Mar-28 22:19 UTC.
Position N 38°01' E 012°31'.

Length 37 m; draft 1 m.

Type: Ship. MMSI: 247297500.

Date/timePositionNaut miles runAvg speedWind from/ knotsBaromVisibWave heightAir tempDewpointWater temp
2015-Mar-28 18:33N 38°01' E 012°31'3 3.4
2015-Mar-28 17:33N 37°59' E 012°27'1 1.4
2015-Mar-28 16:33N 37°60' E 012°29'8 7.9
2015-Mar-28 15:33N 37°56' E 012°20'8 8.2
2015-Mar-28 14:34N 37°60' E 012°29'2 2.0
2015-Mar-28 13:34N 37°59' E 012°26'4 3.9
2015-Mar-28 12:33N 38°01' E 012°31'0 0.0
2015-Mar-27 14:23N 38°01' E 012°31'2 2.6
2015-Mar-27 13:34N 37°60' E 012°29'8 7.9
2015-Mar-27 12:33N 37°56' E 012°19'5 5.3
2015-Mar-27 11:33N 37°58' E 012°26'5 5.3
2015-Mar-27 10:33N 37°56' E 012°20'10 9.8
2015-Mar-27 09:33N 38°01' E 012°30'5 5.2
2015-Mar-27 08:33N 37°58' E 012°25'1 1.1
2015-Mar-27 07:34N 37°58' E 012°24'6 5.7
2015-Mar-27 06:33N 38°01' E 012°30'0 0.4
2015-Mar-27 05:33N 38°01' E 012°31'1 0.1
2015-Mar-26 19:34N 38°00' E 012°30'2 2.0
2015-Mar-26 18:33N 38°00' E 012°27'2 2.1
2015-Mar-26 17:33N 38°00' E 012°30'3 2.7
2015-Mar-26 16:34N 37°59' E 012°27'7 6.5
2015-Mar-26 15:33N 37°56' E 012°20'1010.1
2015-Mar-26 14:33N 38°01' E 012°31'0 0.0
2015-Mar-26 13:33N 38°01' E 012°31'0 0.0
2015-Mar-26 12:33N 38°01' E 012°31'0 0.0
2015-Mar-26 11:32N 38°01' E 012°31'0 0.0
2015-Mar-26 10:33N 38°01' E 012°31'0 0.0
2015-Mar-26 09:33N 38°01' E 012°31'0 0.0
2015-Mar-26 08:33N 38°01' E 012°31'1 0.1
2015-Mar-25 19:34N 38°00' E 012°29'3 2.5
2015-Mar-25 18:33N 38°01' E 012°26'3 2.7
2015-Mar-25 17:33N 38°00' E 012°30'2 2.1
2015-Mar-25 16:34N 37°59' E 012°27'7 7.0
2015-Mar-25 15:33N 37°56' E 012°20'9 8.6
2015-Mar-25 14:33N 38°00' E 012°29'2 2.0
2015-Mar-25 13:33N 38°00' E 012°27'3 3.1
2015-Mar-25 12:33N 38°01' E 012°31'1 0.0
2015-Mar-24 19:34N 38°00' E 012°30'3 3.0
2015-Mar-24 18:34N 38°00' E 012°26'3 2.9
2015-Mar-24 17:34N 38°00' E 012°30'0 0.1
2015-Mar-24 16:33N 38°00' E 012°30'9 9.0
2015-Mar-24 15:33N 37°56' E 012°20'8 8.2
2015-Mar-24 14:33N 37°60' E 012°29'2 2.3
2015-Mar-24 13:34N 38°00' E 012°26'4 3.7
2015-Mar-24 12:33N 38°01' E 012°31'0 0.0
2015-Mar-24 11:33N 38°01' E 012°31'0 0.0
2015-Mar-24 10:33N 38°01' E 012°31'0 0.0
2015-Mar-23 18:33N 38°01' E 012°31'0 0.0
2015-Mar-23 17:33N 38°01' E 012°31'0 0.0
2015-Mar-23 14:33N 38°01' E 012°31'1010.0
2015-Mar-23 13:33N 37°56' E 012°20'1211.9
2015-Mar-23 12:33N 37°58' E 012°05'1413.6
2015-Mar-23 11:33N 37°59' E 012°22'4 3.6
2015-Mar-23 10:33N 37°56' E 012°20'9 9.5
2015-Mar-23 09:33N 38°00' E 012°30'4 4.1
2015-Mar-23 08:33N 37°58' E 012°26'2 2.2
2015-Mar-23 07:33N 38°00' E 012°24'5 5.3
2015-Mar-23 06:33N 38°01' E 012°31'1 0.1
2015-Mar-22 13:34N 38°00' E 012°30'9 9.0
2015-Mar-22 12:33N 37°56' E 012°20'4 3.9
2015-Mar-22 11:34N 37°59' E 012°22'4 3.9
2015-Mar-22 10:34N 37°56' E 012°20'9 9.5
2015-Mar-22 09:33N 38°01' E 012°30'5 4.7
2015-Mar-22 08:33N 37°58' E 012°25'2 2.3
2015-Mar-22 07:34N 38°00' E 012°26'3 3.1
2015-Mar-22 06:33N 38°01' E 012°30'1 0.1
2015-Mar-21 19:33N 38°00' E 012°30'2 2.2
2015-Mar-21 18:34N 38°00' E 012°27'3 2.5
2015-Mar-21 17:33N 38°00' E 012°30'3 2.7
2015-Mar-21 16:33N 37°59' E 012°27'3 3.4
2015-Mar-21 15:33N 38°01' E 012°31'0 0.0
2015-Mar-21 14:33N 38°01' E 012°31'0 0.0
2015-Mar-21 13:33N 38°01' E 012°31'0 0.0
2015-Mar-21 12:34N 38°01' E 012°31'0 0.0
2015-Mar-20 20:32N 38°01' E 012°31'0 0.0
2015-Mar-20 19:33N 38°01' E 012°31'0 0.0
2015-Mar-20 18:33N 38°01' E 012°31'0 0.0
2015-Mar-20 17:33N 38°01' E 012°31'0 0.0
2015-Mar-20 16:33N 38°01' E 012°31'0 0.0
2015-Mar-20 15:34N 38°01' E 012°31'1 1.1
2015-Mar-20 14:33N 38°00' E 012°30'2 2.1
2015-Mar-20 13:33N 38°00' E 012°27'3 3.0
2015-Mar-20 12:33N 38°01' E 012°31'0 0.0
2015-Mar-20 11:33N 38°01' E 012°31'10 9.9
2015-Mar-20 10:33N 37°56' E 012°20'1010.1
2015-Mar-20 09:33N 38°01' E 012°31'5 5.2
2015-Mar-20 08:33N 37°58' E 012°25'2 1.9
2015-Mar-20 07:34N 38°00' E 012°25'4 4.3
2015-Mar-20 06:33N 38°01' E 012°31'1 0.1
2015-Mar-19 19:33N 38°00' E 012°30'2 2.3
2015-Mar-19 18:33N 38°00' E 012°27'2 2.1
2015-Mar-19 17:34N 38°00' E 012°30'1 1.1
2015-Mar-19 16:34N 37°60' E 012°28'8 7.8
2015-Mar-19 15:33N 37°56' E 012°20'8 8.1
2015-Mar-19 14:33N 37°60' E 012°29'2 1.6
2015-Mar-19 13:33N 38°00' E 012°27'3 3.3
2015-Mar-19 12:33N 38°01' E 012°31'0 0.0
2015-Mar-19 11:33N 38°01' E 012°31'0 0.0
2015-Mar-19 10:33N 38°01' E 012°31'0 0.0
2015-Mar-19 09:33N 38°01' E 012°31'0 0.0
2015-Mar-19 08:33N 38°01' E 012°31'0 0.0
2015-Mar-19 07:33N 38°01' E 012°31'  

Dump ship's entire track history